createdAt,value
2023-01-02T00:03:55.737Z,8.48
2023-01-02T00:08:57.338Z,7.60
2023-01-02T00:13:58.944Z,8.05
2023-01-02T00:19:00.510Z,7.03
2023-01-02T00:24:02.233Z,7.50
2023-01-02T00:29:03.910Z,7.72
2023-01-02T00:34:05.541Z,7.90
2023-01-02T00:39:07.157Z,8.45
2023-01-02T00:44:08.717Z,9.45
2023-01-02T00:49:10.373Z,9.32
2023-01-02T00:54:11.964Z,8.50
2023-01-02T00:59:13.564Z,6.47
2023-01-02T01:04:15.490Z,7.22
2023-01-02T01:09:18.132Z,8.20
2023-01-02T01:14:19.813Z,7.97
2023-01-02T01:19:21.401Z,7.57
2023-01-02T01:24:23.043Z,6.78
2023-01-02T01:29:24.588Z,7.13
2023-01-02T01:34:26.142Z,6.72
2023-01-02T01:39:27.715Z,7.35
2023-01-02T01:44:46.597Z,7.00
2023-01-02T01:49:51.624Z,6.78
2023-01-02T01:54:59.241Z,5.80
2023-01-02T02:00:01.927Z,5.68
2023-01-02T02:05:06.579Z,6.82
2023-01-02T02:10:11.111Z,8.13
2023-01-02T02:15:20.029Z,7.65
2023-01-02T02:20:39.399Z,7.78
2023-01-02T02:26:09.005Z,11.07
2023-01-02T02:31:17.344Z,9.30
2023-01-02T02:36:26.112Z,10.70
2023-01-02T02:41:57.082Z,9.27
2023-01-02T02:47:14.094Z,9.02
2023-01-02T02:52:23.160Z,6.97
2023-01-02T02:57:25.470Z,8.00
2023-01-02T03:02:27.245Z,7.15
2023-01-02T03:07:58.893Z,6.68
2023-01-02T03:13:10.312Z,6.43
2023-01-02T03:18:56.203Z,7.93
2023-01-02T03:24:01.997Z,11.07
2023-01-02T03:29:31.984Z,17.20
2023-01-02T03:34:36.561Z,8.43
2023-01-02T03:39:47.281Z,6.72
2023-01-02T03:44:57.963Z,5.50
2023-01-02T03:50:04.249Z,4.90
2023-01-02T03:55:07.228Z,4.93
2023-01-02T04:00:11.272Z,4.45
2023-01-02T04:05:31.910Z,4.53
2023-01-02T04:10:37.356Z,5.03
2023-01-02T04:15:41.269Z,4.50
2023-01-02T04:20:49.900Z,4.68
2023-01-02T04:26:04.969Z,4.50
2023-01-02T04:31:19.072Z,3.70
2023-01-02T04:36:21.162Z,3.33
2023-01-02T04:41:28.425Z,3.00
2023-01-02T04:46:30.237Z,2.92
2023-01-02T04:51:31.884Z,2.83
2023-01-02T04:56:33.525Z,2.80
2023-01-02T05:01:35.216Z,2.92
2023-01-02T05:06:36.791Z,2.90
2023-01-02T05:11:38.394Z,3.63
2023-01-02T05:16:39.933Z,3.58
2023-01-02T05:22:00.123Z,4.15
2023-01-02T05:27:01.708Z,3.13
2023-01-02T05:32:03.324Z,3.00
2023-01-02T05:37:04.926Z,3.40
2023-01-02T05:42:06.569Z,3.78
2023-01-02T05:47:10.887Z,3.33
2023-01-02T05:52:15.095Z,3.58
2023-01-02T05:57:16.766Z,3.25
2023-01-02T06:02:18.472Z,3.05
2023-01-02T06:07:20.215Z,3.38
2023-01-02T06:12:21.761Z,3.88
2023-01-02T06:17:23.368Z,3.28
2023-01-02T06:22:24.985Z,3.45
2023-01-02T06:27:26.545Z,3.25
2023-01-02T06:32:28.322Z,3.50
2023-01-02T06:37:29.870Z,3.70
2023-01-02T06:42:33.150Z,3.53
2023-01-02T06:47:34.894Z,3.67
2023-01-02T06:52:36.594Z,3.63
2023-01-02T06:57:38.171Z,3.22
2023-01-02T07:02:42.131Z,3.83
2023-01-02T07:07:44.992Z,3.50
2023-01-02T07:12:46.579Z,3.00
2023-01-02T07:17:48.099Z,3.38
2023-01-02T07:22:54.312Z,2.83
2023-01-02T07:27:55.981Z,2.83
2023-01-02T07:32:57.514Z,3.03
2023-01-02T07:37:59.065Z,3.28
2023-01-02T07:43:00.639Z,2.72
2023-01-02T07:48:02.245Z,1.95
2023-01-02T07:53:03.792Z,2.95
2023-01-02T07:58:05.390Z,2.30
2023-01-02T08:03:06.981Z,2.75
2023-01-02T08:08:09.599Z,2.13
2023-01-02T08:13:11.172Z,2.35
2023-01-02T08:18:12.732Z,3.13
2023-01-02T08:23:14.353Z,2.53
2023-01-02T08:28:16.222Z,2.90
2023-01-02T08:33:17.887Z,2.55
2023-01-02T08:38:19.879Z,2.60
2023-01-02T08:43:21.480Z,4.35
2023-01-02T08:48:23.137Z,11.50
2023-01-02T08:53:24.790Z,5.93
2023-01-02T08:58:26.958Z,3.63
2023-01-02T09:03:28.627Z,3.08
2023-01-02T09:08:31.587Z,2.65
2023-01-02T09:13:33.117Z,2.55
2023-01-02T09:18:34.919Z,3.00
2023-01-02T09:23:36.512Z,2.38
2023-01-02T09:28:38.221Z,2.25
2023-01-02T09:33:41.565Z,1.90
2023-01-02T09:38:43.694Z,2.00
2023-01-02T09:44:18.546Z,1.52
2023-01-02T09:49:23.184Z,1.60
2023-01-02T09:54:31.992Z,1.85
2023-01-02T09:59:49.079Z,1.98
2023-01-02T10:05:20.550Z,2.50
2023-01-02T10:10:54.493Z,2.00
2023-01-02T10:16:00.389Z,2.35
2023-01-02T10:21:10.238Z,2.30
2023-01-02T10:26:25.467Z,1.90
2023-01-02T10:31:56.572Z,2.03
2023-01-02T10:37:01.824Z,1.60
2023-01-02T10:42:11.728Z,1.90
2023-01-02T10:47:43.048Z,2.00
2023-01-02T10:53:05.777Z,2.45
2023-01-02T10:58:24.344Z,2.40
2023-01-02T11:03:26.126Z,1.75
2023-01-02T11:08:37.963Z,1.60
2023-01-02T11:13:53.797Z,1.50
2023-01-02T11:18:58.793Z,2.00
2023-01-02T11:24:04.294Z,1.77
2023-01-02T11:29:12.310Z,1.52
2023-01-02T11:34:22.865Z,2.25
2023-01-02T11:39:24.842Z,1.70
2023-01-02T11:44:38.691Z,2.30
2023-01-02T11:49:44.080Z,1.35
2023-01-02T11:54:56.267Z,2.00
2023-01-02T12:00:01.456Z,2.08
2023-01-02T12:05:10.466Z,1.95
2023-01-02T12:10:20.493Z,2.13
2023-01-02T12:15:48.224Z,1.90
2023-01-02T12:21:05.235Z,1.90
2023-01-02T12:26:21.727Z,2.22
2023-01-02T12:31:41.267Z,2.30
2023-01-02T12:37:03.356Z,2.83
2023-01-02T12:42:28.626Z,2.45
2023-01-02T12:47:51.691Z,2.28
2023-01-02T12:53:08.430Z,2.65
2023-01-02T12:58:19.910Z,2.63
2023-01-02T13:04:00.670Z,2.55
2023-01-02T13:09:14.620Z,2.53
2023-01-02T13:14:32.940Z,2.53
2023-01-02T13:19:51.143Z,2.10
2023-01-02T13:24:53.389Z,2.22
2023-01-02T13:29:55.114Z,3.30
2023-01-02T13:35:01.526Z,3.25
2023-01-02T13:40:04.538Z,3.22
2023-01-02T13:45:13.620Z,4.05
2023-01-02T13:50:23.939Z,3.63
2023-01-02T13:55:31.591Z,5.80
2023-01-02T14:00:39.515Z,7.75
2023-01-02T14:05:59.483Z,4.40
2023-01-02T14:16:36.127Z,4.38
2023-01-02T14:21:40.835Z,5.60
2023-01-02T14:26:42.525Z,4.97
2023-01-02T14:31:44.364Z,5.10
2023-01-02T14:36:49.462Z,3.70
2023-01-02T14:42:09.667Z,3.20
2023-01-02T14:47:15.381Z,3.55
2023-01-02T14:52:26.399Z,3.53
2023-01-02T14:57:38.099Z,3.35
2023-01-02T15:02:44.539Z,3.97
2023-01-02T15:07:51.636Z,3.45
2023-01-02T15:13:04.261Z,3.60
2023-01-02T15:18:12.753Z,3.53
2023-01-02T15:23:21.291Z,3.22
2023-01-02T15:28:22.801Z,3.08
2023-01-02T15:33:29.582Z,3.58
2023-01-02T15:38:32.122Z,3.17
2023-01-02T15:43:53.928Z,3.42
2023-01-02T15:48:56.262Z,2.63
2023-01-02T15:54:03.163Z,3.28
2023-01-02T15:59:24.887Z,5.07
2023-01-02T16:04:32.584Z,3.55
2023-01-02T16:09:34.335Z,3.47
2023-01-02T16:14:41.587Z,3.10
2023-01-02T16:19:58.846Z,3.28
2023-01-02T16:25:05.421Z,4.03
2023-01-02T16:30:25.408Z,4.10
2023-01-02T16:35:34.388Z,4.03
2023-01-02T16:41:01.909Z,3.33
2023-01-02T16:46:08.670Z,3.25
2023-01-02T16:51:10.616Z,2.28
2023-01-02T16:56:12.835Z,1.80
2023-01-02T17:01:16.410Z,1.80
2023-01-02T17:06:19.104Z,1.77
2023-01-02T17:11:23.239Z,1.63
2023-01-02T17:16:24.882Z,1.35
2023-01-02T17:21:32.565Z,1.40
2023-01-02T17:26:34.700Z,1.20
2023-01-02T17:31:37.262Z,1.30
2023-01-02T17:36:38.876Z,1.20
2023-01-02T17:41:40.464Z,1.00
2023-01-02T17:47:15.323Z,0.85
2023-01-02T17:52:03.850Z,0.77
2023-01-02T17:57:06.286Z,1.00
2023-01-02T18:02:08.323Z,1.00
2023-01-02T18:07:14.935Z,1.10
2023-01-02T18:12:16.634Z,0.80
2023-01-02T18:17:25.490Z,1.00
2023-01-02T18:22:31.620Z,0.98
2023-01-02T18:27:34.948Z,1.10
2023-01-02T18:32:38.919Z,0.82
2023-01-02T18:37:41.156Z,1.17
2023-01-02T18:42:44.952Z,1.13
2023-01-02T18:47:48.944Z,1.30
2023-01-02T18:52:51.575Z,1.40
2023-01-02T18:58:09.268Z,1.40
2023-01-02T19:03:19.286Z,1.70
2023-01-02T19:08:25.157Z,1.60
2023-01-02T19:13:34.739Z,1.10
2023-01-02T19:18:56.409Z,0.90
2023-01-02T19:24:04.993Z,1.00
2023-01-02T19:29:09.571Z,1.20
2023-01-02T19:34:27.671Z,0.90
2023-01-02T19:39:52.430Z,1.05
2023-01-02T19:44:58.412Z,0.90
2023-01-02T19:50:01.536Z,1.00
2023-01-02T19:55:04.967Z,1.30
2023-01-02T20:00:12.344Z,1.30
2023-01-02T20:05:21.130Z,1.30
2023-01-02T20:10:23.871Z,1.55
2023-01-02T20:15:27.140Z,1.63
2023-01-02T20:20:29.712Z,1.58
2023-01-02T20:25:31.443Z,1.73
2023-01-02T20:30:33.059Z,1.83
2023-01-02T20:35:34.701Z,1.38
2023-01-02T20:40:36.504Z,1.63
2023-01-02T20:45:38.083Z,1.52
2023-01-02T20:50:39.753Z,1.40
2023-01-02T20:55:41.641Z,1.40
2023-01-02T21:00:43.314Z,1.40
2023-01-02T21:05:45.232Z,1.10
2023-01-02T21:10:46.945Z,1.70
2023-01-02T21:15:52.033Z,1.60
2023-01-02T21:20:57.426Z,1.15
2023-01-02T21:25:59.420Z,1.27
2023-01-02T21:31:01.595Z,1.52
2023-01-02T21:36:05.090Z,1.42
2023-01-02T21:41:25.233Z,1.42
2023-01-02T21:46:26.946Z,1.33
2023-01-02T21:51:32.788Z,1.50
2023-01-02T21:56:34.728Z,1.10
2023-01-02T22:01:36.450Z,0.98
2023-01-02T22:07:04.346Z,0.90
2023-01-02T22:12:02.057Z,1.42
2023-01-02T22:17:09.133Z,1.88
2023-01-02T22:22:10.947Z,1.85
2023-01-02T22:27:14.690Z,9.38
2023-01-02T22:32:16.604Z,3.00
2023-01-02T22:37:22.407Z,2.97
2023-01-02T22:43:03.980Z,1.50
2023-01-02T22:48:19.610Z,1.08
2023-01-02T22:53:27.787Z,0.95
2023-01-02T22:58:29.642Z,4.47
2023-01-02T23:03:37.968Z,4.68
2023-01-02T23:08:39.655Z,2.30
2023-01-02T23:13:42.316Z,1.63
2023-01-02T23:19:02.878Z,1.25
2023-01-02T23:24:06.661Z,0.70
2023-01-02T23:29:09.224Z,1.20
2023-01-02T23:34:14.367Z,0.80
2023-01-02T23:39:18.600Z,0.80
2023-01-02T23:44:21.996Z,0.98
2023-01-02T23:49:24.541Z,1.08
2023-01-02T23:54:26.291Z,1.00
2023-01-02T23:59:28.060Z,1.30
